sensor_id;sensor_type;location;lat;lon;timestamp;P1;durP1;ratioP1;P2;durP2;ratioP2
15506;SDS011;7855;52.210;5.982;2022-09-11T00:02:36;49;;;22;;
15506;SDS011;7855;52.210;5.982;2022-09-11T00:03:43;34;;;20;;
15506;SDS011;7855;52.210;5.982;2022-09-11T00:06:00;33;;;20;;
15506;SDS011;7855;52.210;5.982;2022-09-11T00:08:12;34;;;19;;
15506;SDS011;7855;52.210;5.982;2022-09-11T00:10:26;38;;;21;;
15506;SDS011;7855;52.210;5.982;2022-09-11T00:12:40;36;;;21;;
15506;SDS011;7855;52.210;5.982;2022-09-11T00:14:54;45;;;22;;
15506;SDS011;7855;52.210;5.982;2022-09-11T00:17:09;46;;;21;;
15506;SDS011;7855;52.210;5.982;2022-09-11T00:19:24;38;;;21;;
15506;SDS011;7855;52.210;5.982;2022-09-11T00:21:38;38;;;20;;
15506;SDS011;7855;52.210;5.982;2022-09-11T00:23:53;37;;;22;;
15506;SDS011;7855;52.210;5.982;2022-09-11T00:26:07;41;;;23;;
15506;SDS011;7855;52.210;5.982;2022-09-11T00:28:22;43;;;21;;
15506;SDS011;7855;52.210;5.982;2022-09-11T00:30:36;35;;;20;;
15506;SDS011;7855;52.210;5.982;2022-09-11T00:32:50;36;;;22;;
15506;SDS011;7855;52.210;5.982;2022-09-11T00:35:06;42;;;23;;
15506;SDS011;7855;52.210;5.982;2022-09-11T00:37:19;50;;;24;;
15506;SDS011;7855;52.210;5.982;2022-09-11T00:39:34;41;;;23;;
15506;SDS011;7855;52.210;5.982;2022-09-11T00:41:48;41;;;23;;
15506;SDS011;7855;52.210;5.982;2022-09-11T00:44:03;43;;;24;;
15506;SDS011;7855;52.210;5.982;2022-09-11T00:46:17;46;;;23;;
15506;SDS011;7855;52.210;5.982;2022-09-11T00:48:33;38;;;20;;
15506;SDS011;7855;52.210;5.982;2022-09-11T00:50:46;42;;;22;;
15506;SDS011;7855;52.210;5.982;2022-09-11T00:53:00;46;;;22;;
15506;SDS011;7855;52.210;5.982;2022-09-11T00:55:15;48;;;23;;
15506;SDS011;7855;52.210;5.982;2022-09-11T00:57:29;46;;;25;;
15506;SDS011;7855;52.210;5.982;2022-09-11T00:59:43;36;;;20;;
15506;SDS011;7855;52.210;5.982;2022-09-11T01:01:57;40;;;20;;
15506;SDS011;7855;52.210;5.982;2022-09-11T01:04:11;53;;;26;;
15506;SDS011;7855;52.210;5.982;2022-09-11T01:06:26;58;;;26;;
15506;SDS011;7855;52.210;5.982;2022-09-11T01:08:41;39;;;21;;
15506;SDS011;7855;52.210;5.982;2022-09-11T01:10:59;44;;;23;;
15506;SDS011;7855;52.210;5.982;2022-09-11T01:13:09;46;;;23;;
15506;SDS011;7855;52.210;5.982;2022-09-11T01:15:25;45;;;23;;
15506;SDS011;7855;52.210;5.982;2022-09-11T01:17:39;59;;;25;;
15506;SDS011;7855;52.210;5.982;2022-09-11T01:19:58;50;;;25;;
15506;SDS011;7855;52.210;5.982;2022-09-11T01:22:12;58;;;27;;
15506;SDS011;7855;52.210;5.982;2022-09-11T01:24:25;45;;;25;;
15506;SDS011;7855;52.210;5.982;2022-09-11T01:26:37;52;;;26;;
15506;SDS011;7855;52.210;5.982;2022-09-11T01:28:51;43;;;24;;
15506;SDS011;7855;52.210;5.982;2022-09-11T01:31:05;44;;;23;;
15506;SDS011;7855;52.210;5.982;2022-09-11T01:33:19;47;;;24;;
15506;SDS011;7855;52.210;5.982;2022-09-11T01:35:36;44;;;22;;
15506;SDS011;7855;52.210;5.982;2022-09-11T01:37:49;49;;;26;;
15506;SDS011;7855;52.210;5.982;2022-09-11T01:40:07;50;;;25;;
15506;SDS011;7855;52.210;5.982;2022-09-11T01:42:17;57;;;27;;
15506;SDS011;7855;52.210;5.982;2022-09-11T01:44:31;42;;;21;;
15506;SDS011;7855;52.210;5.982;2022-09-11T01:46:45;48;;;23;;
15506;SDS011;7855;52.210;5.982;2022-09-11T01:49:02;49;;;25;;
15506;SDS011;7855;52.210;5.982;2022-09-11T01:51:15;47;;;26;;
15506;SDS011;7855;52.210;5.982;2022-09-11T01:53:30;57;;;27;;
15506;SDS011;7855;52.210;5.982;2022-09-11T01:55:44;55;;;26;;
15506;SDS011;7855;52.210;5.982;2022-09-11T01:57:58;51;;;25;;
15506;SDS011;7855;52.210;5.982;2022-09-11T02:02:28;50;;;26;;
15506;SDS011;7855;52.210;5.982;2022-09-11T02:04:43;56;;;28;;
15506;SDS011;7855;52.210;5.982;2022-09-11T02:06:57;52;;;24;;
15506;SDS011;7855;52.210;5.982;2022-09-11T02:09:10;44;;;22;;
15506;SDS011;7855;52.210;5.982;2022-09-11T02:11:24;47;;;25;;
15506;SDS011;7855;52.210;5.982;2022-09-11T02:13:39;47;;;23;;
15506;SDS011;7855;52.210;5.982;2022-09-11T02:15:54;39;;;21;;
15506;SDS011;7855;52.210;5.982;2022-09-11T02:18:10;54;;;27;;
15506;SDS011;7855;52.210;5.982;2022-09-11T02:20:22;50;;;25;;
15506;SDS011;7855;52.210;5.982;2022-09-11T02:22:36;58;;;26;;
15506;SDS011;7855;52.210;5.982;2022-09-11T02:24:51;61;;;28;;
15506;SDS011;7855;52.210;5.982;2022-09-11T02:27:06;46;;;24;;
15506;SDS011;7855;52.210;5.982;2022-09-11T02:29:20;41;;;21;;
15506;SDS011;7855;52.210;5.982;2022-09-11T02:31:34;50;;;25;;
15506;SDS011;7855;52.210;5.982;2022-09-11T02:33:49;53;;;25;;
15506;SDS011;7855;52.210;5.982;2022-09-11T02:36:10;54;;;26;;
15506;SDS011;7855;52.210;5.982;2022-09-11T02:38:19;54;;;25;;
15506;SDS011;7855;52.210;5.982;2022-09-11T02:40:35;57;;;26;;
15506;SDS011;7855;52.210;5.982;2022-09-11T02:42:51;48;;;24;;
15506;SDS011;7855;52.210;5.982;2022-09-11T02:45:04;68;;;27;;
15506;SDS011;7855;52.210;5.982;2022-09-11T02:47:17;49;;;23;;
15506;SDS011;7855;52.210;5.982;2022-09-11T02:49:32;57;;;26;;
15506;SDS011;7855;52.210;5.982;2022-09-11T02:51:45;48;;;25;;
15506;SDS011;7855;52.210;5.982;2022-09-11T02:54:00;52;;;24;;
15506;SDS011;7855;52.210;5.982;2022-09-11T02:56:14;71;;;28;;
15506;SDS011;7855;52.210;5.982;2022-09-11T02:58:29;65;;;27;;
15506;SDS011;7855;52.210;5.982;2022-09-11T03:00:42;44;;;22;;
15506;SDS011;7855;52.210;5.982;2022-09-11T03:02:56;64;;;27;;
15506;SDS011;7855;52.210;5.982;2022-09-11T03:05:11;51;;;24;;
15506;SDS011;7855;52.210;5.982;2022-09-11T03:07:25;59;;;24;;
15506;SDS011;7855;52.210;5.982;2022-09-11T03:09:40;46;;;21;;
15506;SDS011;7855;52.210;5.982;2022-09-11T03:11:54;54;;;24;;
15506;SDS011;7855;52.210;5.982;2022-09-11T03:14:09;43;;;22;;
15506;SDS011;7855;52.210;5.982;2022-09-11T03:16:23;43;;;22;;
15506;SDS011;7855;52.210;5.982;2022-09-11T03:18:38;55;;;27;;
15506;SDS011;7855;52.210;5.982;2022-09-11T03:20:52;57;;;26;;
15506;SDS011;7855;52.210;5.982;2022-09-11T03:23:07;53;;;23;;
15506;SDS011;7855;52.210;5.982;2022-09-11T03:25:21;46;;;23;;
15506;SDS011;7855;52.210;5.982;2022-09-11T03:27:35;40;;;21;;
15506;SDS011;7855;52.210;5.982;2022-09-11T03:29:50;42;;;21;;
15506;SDS011;7855;52.210;5.982;2022-09-11T03:32:04;46;;;22;;
15506;SDS011;7855;52.210;5.982;2022-09-11T03:34:18;50;;;24;;
15506;SDS011;7855;52.210;5.982;2022-09-11T03:36:32;40;;;20;;
15506;SDS011;7855;52.210;5.982;2022-09-11T03:38:47;52;;;24;;
15506;SDS011;7855;52.210;5.982;2022-09-11T03:41:01;42;;;21;;
15506;SDS011;7855;52.210;5.982;2022-09-11T03:43:15;50;;;22;;
15506;SDS011;7855;52.210;5.982;2022-09-11T03:45:30;65;;;28;;
15506;SDS011;7855;52.210;5.982;2022-09-11T03:47:45;71;;;28;;
15506;SDS011;7855;52.210;5.982;2022-09-11T03:49:59;73;;;28;;
15506;SDS011;7855;52.210;5.982;2022-09-11T03:52:13;70;;;29;;
15506;SDS011;7855;52.210;5.982;2022-09-11T03:54:28;64;;;27;;
15506;SDS011;7855;52.210;5.982;2022-09-11T03:56:42;49;;;23;;
15506;SDS011;7855;52.210;5.982;2022-09-11T03:58:57;52;;;24;;
15506;SDS011;7855;52.210;5.982;2022-09-11T04:01:12;46;;;23;;
15506;SDS011;7855;52.210;5.982;2022-09-11T04:03:26;55;;;25;;
15506;SDS011;7855;52.210;5.982;2022-09-11T04:05:40;46;;;23;;
15506;SDS011;7855;52.210;5.982;2022-09-11T04:07:54;55;;;24;;
15506;SDS011;7855;52.210;5.982;2022-09-11T04:10:09;54;;;25;;
15506;SDS011;7855;52.210;5.982;2022-09-11T04:12:23;60;;;23;;
15506;SDS011;7855;52.210;5.982;2022-09-11T04:14:38;51;;;23;;
15506;SDS011;7855;52.210;5.982;2022-09-11T04:16:53;60;;;24;;
15506;SDS011;7855;52.210;5.982;2022-09-11T04:19:07;63;;;25;;
15506;SDS011;7855;52.210;5.982;2022-09-11T04:21:21;68;;;27;;
15506;SDS011;7855;52.210;5.982;2022-09-11T04:23:36;47;;;23;;
15506;SDS011;7855;52.210;5.982;2022-09-11T04:25:50;51;;;23;;
15506;SDS011;7855;52.210;5.982;2022-09-11T04:28:05;54;;;24;;
15506;SDS011;7855;52.210;5.982;2022-09-11T04:30:19;44;;;22;;
15506;SDS011;7855;52.210;5.982;2022-09-11T04:32:34;65;;;25;;
15506;SDS011;7855;52.210;5.982;2022-09-11T04:34:48;69;;;28;;
15506;SDS011;7855;52.210;5.982;2022-09-11T04:37:02;62;;;25;;
15506;SDS011;7855;52.210;5.982;2022-09-11T04:39:17;73;;;27;;
15506;SDS011;7855;52.210;5.982;2022-09-11T04:41:31;58;;;23;;
15506;SDS011;7855;52.210;5.982;2022-09-11T04:43:46;59;;;26;;
15506;SDS011;7855;52.210;5.982;2022-09-11T04:46:00;69;;;25;;
15506;SDS011;7855;52.210;5.982;2022-09-11T04:48:15;61;;;25;;
15506;SDS011;7855;52.210;5.982;2022-09-11T04:50:29;61;;;27;;
15506;SDS011;7855;52.210;5.982;2022-09-11T04:52:44;72;;;27;;
15506;SDS011;7855;52.210;5.982;2022-09-11T04:54:58;67;;;24;;
15506;SDS011;7855;52.210;5.982;2022-09-11T04:57:12;60;;;23;;
15506;SDS011;7855;52.210;5.982;2022-09-11T04:59:27;47;;;23;;
15506;SDS011;7855;52.210;5.982;2022-09-11T05:01:41;48;;;20;;
15506;SDS011;7855;52.210;5.982;2022-09-11T05:03:56;56;;;24;;
15506;SDS011;7855;52.210;5.982;2022-09-11T05:06:11;44;;;21;;
15506;SDS011;7855;52.210;5.982;2022-09-11T05:08:25;46;;;21;;
15506;SDS011;7855;52.210;5.982;2022-09-11T05:10:39;57;;;24;;
15506;SDS011;7855;52.210;5.982;2022-09-11T05:12:53;45;;;21;;
15506;SDS011;7855;52.210;5.982;2022-09-11T05:15:09;50;;;22;;
15506;SDS011;7855;52.210;5.982;2022-09-11T05:17:22;45;;;21;;
15506;SDS011;7855;52.210;5.982;2022-09-11T05:19:37;42;;;19;;
15506;SDS011;7855;52.210;5.982;2022-09-11T05:21:51;40;;;18;;
15506;SDS011;7855;52.210;5.982;2022-09-11T05:24:06;48;;;21;;
15506;SDS011;7855;52.210;5.982;2022-09-11T05:26:21;46;;;21;;
15506;SDS011;7855;52.210;5.982;2022-09-11T05:28:34;46;;;20;;
15506;SDS011;7855;52.210;5.982;2022-09-11T05:30:49;38;;;18;;
15506;SDS011;7855;52.210;5.982;2022-09-11T05:33:04;41;;;19;;
15506;SDS011;7855;52.210;5.982;2022-09-11T05:35:18;62;;;24;;
15506;SDS011;7855;52.210;5.982;2022-09-11T05:37:33;64;;;25;;
15506;SDS011;7855;52.210;5.982;2022-09-11T05:39:47;46;;;20;;
15506;SDS011;7855;52.210;5.982;2022-09-11T05:42:01;50;;;19;;
15506;SDS011;7855;52.210;5.982;2022-09-11T05:44:16;43;;;20;;
15506;SDS011;7855;52.210;5.982;2022-09-11T05:46:30;50;;;22;;
15506;SDS011;7855;52.210;5.982;2022-09-11T05:48:45;43;;;19;;
15506;SDS011;7855;52.210;5.982;2022-09-11T05:51:00;46;;;20;;
15506;SDS011;7855;52.210;5.982;2022-09-11T05:53:14;49;;;23;;
15506;SDS011;7855;52.210;5.982;2022-09-11T05:55:31;47;;;21;;
15506;SDS011;7855;52.210;5.982;2022-09-11T05:57:43;42;;;20;;
15506;SDS011;7855;52.210;5.982;2022-09-11T05:59:56;44;;;21;;
15506;SDS011;7855;52.210;5.982;2022-09-11T06:02:10;47;;;23;;
15506;SDS011;7855;52.210;5.982;2022-09-11T06:04:25;50;;;22;;
15506;SDS011;7855;52.210;5.982;2022-09-11T06:06:39;46;;;22;;
15506;SDS011;7855;52.210;5.982;2022-09-11T06:08:54;51;;;22;;
15506;SDS011;7855;52.210;5.982;2022-09-11T06:11:09;46;;;20;;
15506;SDS011;7855;52.210;5.982;2022-09-11T06:13:23;47;;;21;;
15506;SDS011;7855;52.210;5.982;2022-09-11T06:15:42;51;;;23;;
15506;SDS011;7855;52.210;5.982;2022-09-11T06:17:52;49;;;22;;
15506;SDS011;7855;52.210;5.982;2022-09-11T06:20:06;37;;;19;;
15506;SDS011;7855;52.210;5.982;2022-09-11T06:22:21;50;;;24;;
15506;SDS011;7855;52.210;5.982;2022-09-11T06:24:35;46;;;21;;
15506;SDS011;7855;52.210;5.982;2022-09-11T06:26:49;45;;;21;;
15506;SDS011;7855;52.210;5.982;2022-09-11T06:29:04;42;;;20;;
15506;SDS011;7855;52.210;5.982;2022-09-11T06:31:19;48;;;22;;
15506;SDS011;7855;52.210;5.982;2022-09-11T06:33:33;40;;;20;;
15506;SDS011;7855;52.210;5.982;2022-09-11T06:35:55;44;;;20;;
15506;SDS011;7855;52.210;5.982;2022-09-11T06:38:02;50;;;23;;
15506;SDS011;7855;52.210;5.982;2022-09-11T06:40:16;43;;;22;;
15506;SDS011;7855;52.210;5.982;2022-09-11T06:42:30;45;;;23;;
15506;SDS011;7855;52.210;5.982;2022-09-11T06:44:45;42;;;20;;
15506;SDS011;7855;52.210;5.982;2022-09-11T06:46:59;46;;;21;;
15506;SDS011;7855;52.210;5.982;2022-09-11T06:49:14;44;;;20;;
15506;SDS011;7855;52.210;5.982;2022-09-11T06:51:28;40;;;20;;
15506;SDS011;7855;52.210;5.982;2022-09-11T06:53:43;41;;;21;;
15506;SDS011;7855;52.210;5.982;2022-09-11T06:55:58;45;;;23;;
15506;SDS011;7855;52.210;5.982;2022-09-11T06:58:11;59;;;25;;
15506;SDS011;7855;52.210;5.982;2022-09-11T07:00:26;46;;;24;;
15506;SDS011;7855;52.210;5.982;2022-09-11T07:02:41;42;;;22;;
15506;SDS011;7855;52.210;5.982;2022-09-11T07:04:55;45;;;21;;
15506;SDS011;7855;52.210;5.982;2022-09-11T07:07:10;44;;;23;;
15506;SDS011;7855;52.210;5.982;2022-09-11T07:09:24;51;;;27;;
15506;SDS011;7855;52.210;5.982;2022-09-11T07:11:38;45;;;23;;
15506;SDS011;7855;52.210;5.982;2022-09-11T07:13:53;55;;;27;;
15506;SDS011;7855;52.210;5.982;2022-09-11T07:16:08;55;;;25;;
15506;SDS011;7855;52.210;5.982;2022-09-11T07:18:22;50;;;26;;
15506;SDS011;7855;52.210;5.982;2022-09-11T07:20:37;69;;;33;;
15506;SDS011;7855;52.210;5.982;2022-09-11T07:22:51;69;;;33;;
15506;SDS011;7855;52.210;5.982;2022-09-11T07:25:05;63;;;31;;
15506;SDS011;7855;52.210;5.982;2022-09-11T07:27:20;44;;;26;;
15506;SDS011;7855;52.210;5.982;2022-09-11T07:29:34;51;;;30;;
15506;SDS011;7855;52.210;5.982;2022-09-11T07:31:48;36;;;24;;
15506;SDS011;7855;52.210;5.982;2022-09-11T07:34:03;26;;;19;;
15506;SDS011;7855;52.210;5.982;2022-09-11T07:36:18;30;;;20;;
15506;SDS011;7855;52.210;5.982;2022-09-11T07:38:32;25;;;19;;
15506;SDS011;7855;52.210;5.982;2022-09-11T07:40:46;21;;;15;;
15506;SDS011;7855;52.210;5.982;2022-09-11T07:43:01;19;;;14;;
15506;SDS011;7855;52.210;5.982;2022-09-11T07:45:15;18;;;11;;
15506;SDS011;7855;52.210;5.982;2022-09-11T07:47:29;20;;;12;;
15506;SDS011;7855;52.210;5.982;2022-09-11T07:49:44;13;;;9;;
15506;SDS011;7855;52.210;5.982;2022-09-11T07:51:58;15;;;10;;
15506;SDS011;7855;52.210;5.982;2022-09-11T07:54:13;17;;;9;;
15506;SDS011;7855;52.210;5.982;2022-09-11T07:56:27;14;;;8;;
15506;SDS011;7855;52.210;5.982;2022-09-11T07:58:42;15;;;8;;
15506;SDS011;7855;52.210;5.982;2022-09-11T08:00:56;13;;;7;;
15506;SDS011;7855;52.210;5.982;2022-09-11T08:03:11;11;;;6;;
15506;SDS011;7855;52.210;5.982;2022-09-11T08:05:25;10;;;6;;
15506;SDS011;7855;52.210;5.982;2022-09-11T08:07:40;12;;;6;;
15506;SDS011;7855;52.210;5.982;2022-09-11T08:09:54;11;;;6;;
15506;SDS011;7855;52.210;5.982;2022-09-11T08:12:09;13;;;8;;
15506;SDS011;7855;52.210;5.982;2022-09-11T08:14:23;13;;;7;;
15506;SDS011;7855;52.210;5.982;2022-09-11T08:16:38;12;;;7;;
15506;SDS011;7855;52.210;5.982;2022-09-11T08:18:52;11;;;6;;
15506;SDS011;7855;52.210;5.982;2022-09-11T08:23:21;10;;;6;;
15506;SDS011;7855;52.210;5.982;2022-09-11T08:25:34;9;;;5;;
15506;SDS011;7855;52.210;5.982;2022-09-11T08:27:49;11;;;7;;
15506;SDS011;7855;52.210;5.982;2022-09-11T08:30:06;17;;;7;;
15506;SDS011;7855;52.210;5.982;2022-09-11T08:32:18;11;;;5;;
15506;SDS011;7855;52.210;5.982;2022-09-11T08:34:32;13;;;6;;
15506;SDS011;7855;52.210;5.982;2022-09-11T08:36:47;9;;;5;;
15506;SDS011;7855;52.210;5.982;2022-09-11T08:39:01;12;;;6;;
15506;SDS011;7855;52.210;5.982;2022-09-11T08:41:19;14;;;7;;
15506;SDS011;7855;52.210;5.982;2022-09-11T08:43:30;11;;;6;;
15506;SDS011;7855;52.210;5.982;2022-09-11T08:45:43;11;;;5;;
15506;SDS011;7855;52.210;5.982;2022-09-11T08:47:58;14;;;7;;
15506;SDS011;7855;52.210;5.982;2022-09-11T08:50:15;9;;;4;;
15506;SDS011;7855;52.210;5.982;2022-09-11T08:52:27;12;;;5;;
15506;SDS011;7855;52.210;5.982;2022-09-11T08:54:42;9;;;3;;
15506;SDS011;7855;52.210;5.982;2022-09-11T08:56:57;10;;;3;;
15506;SDS011;7855;52.210;5.982;2022-09-11T08:59:15;10;;;3;;
15506;SDS011;7855;52.210;5.982;2022-09-11T09:01:25;12;;;3;;
15506;SDS011;7855;52.210;5.982;2022-09-11T09:03:46;13;;;6;;
15506;SDS011;7855;52.210;5.982;2022-09-11T09:05:54;7;;;3;;
15506;SDS011;7855;52.210;5.982;2022-09-11T09:08:12;8;;;3;;
15506;SDS011;7855;52.210;5.982;2022-09-11T09:10:26;10;;;4;;
15506;SDS011;7855;52.210;5.982;2022-09-11T09:12:38;9;;;5;;
15506;SDS011;7855;52.210;5.982;2022-09-11T09:14:56;11;;;3;;
15506;SDS011;7855;52.210;5.982;2022-09-11T09:17:06;8;;;3;;
15506;SDS011;7855;52.210;5.982;2022-09-11T09:19:22;13;;;3;;
15506;SDS011;7855;52.210;5.982;2022-09-11T09:21:36;10;;;3;;
15506;SDS011;7855;52.210;5.982;2022-09-11T09:23:51;9;;;2;;
15506;SDS011;7855;52.210;5.982;2022-09-11T09:26:03;6;;;2;;
15506;SDS011;7855;52.210;5.982;2022-09-11T09:28:19;9;;;2;;
15506;SDS011;7855;52.210;5.982;2022-09-11T09:30:33;6;;;2;;
15506;SDS011;7855;52.210;5.982;2022-09-11T09:32:48;7;;;2;;
15506;SDS011;7855;52.210;5.982;2022-09-11T09:35:04;8;;;2;;
15506;SDS011;7855;52.210;5.982;2022-09-11T09:37:16;7;;;2;;
15506;SDS011;7855;52.210;5.982;2022-09-11T09:39:31;9;;;2;;
15506;SDS011;7855;52.210;5.982;2022-09-11T09:41:49;9;;;2;;
15506;SDS011;7855;52.210;5.982;2022-09-11T09:44:00;10;;;2;;
15506;SDS011;7855;52.210;5.982;2022-09-11T09:46:15;9;;;1;;
15506;SDS011;7855;52.210;5.982;2022-09-11T09:48:28;5;;;1;;
15506;SDS011;7855;52.210;5.982;2022-09-11T09:50:42;8;;;1;;
15506;SDS011;7855;52.210;5.982;2022-09-11T09:53:00;9;;;2;;
15506;SDS011;7855;52.210;5.982;2022-09-11T09:55:12;7;;;1;;
15506;SDS011;7855;52.210;5.982;2022-09-11T09:57:28;8;;;2;;
15506;SDS011;7855;52.210;5.982;2022-09-11T09:59:40;7;;;2;;
15506;SDS011;7855;52.210;5.982;2022-09-11T10:01:55;8;;;1;;
15506;SDS011;7855;52.210;5.982;2022-09-11T10:04:10;7;;;2;;
15506;SDS011;7855;52.210;5.982;2022-09-11T10:06:23;8;;;1;;
15506;SDS011;7855;52.210;5.982;2022-09-11T10:08:38;7;;;1;;
15506;SDS011;7855;52.210;5.982;2022-09-11T10:10:53;11;;;2;;
15506;SDS011;7855;52.210;5.982;2022-09-11T10:13:19;8;;;1;;
15506;SDS011;7855;52.210;5.982;2022-09-11T10:15:22;9;;;1;;
15506;SDS011;7855;52.210;5.982;2022-09-11T10:17:35;6;;;1;;
15506;SDS011;7855;52.210;5.982;2022-09-11T10:19:52;8;;;1;;
15506;SDS011;7855;52.210;5.982;2022-09-11T10:24:20;5;;;1;;
15506;SDS011;7855;52.210;5.982;2022-09-11T10:26:38;8;;;1;;
15506;SDS011;7855;52.210;5.982;2022-09-11T10:28:48;7;;;1;;
15506;SDS011;7855;52.210;5.982;2022-09-11T10:31:03;6;;;1;;
15506;SDS011;7855;52.210;5.982;2022-09-11T10:33:18;7;;;1;;
15506;SDS011;7855;52.210;5.982;2022-09-11T10:35:32;7;;;1;;
15506;SDS011;7855;52.210;5.982;2022-09-11T10:37:46;6;;;1;;
15506;SDS011;7855;52.210;5.982;2022-09-11T10:40:01;7;;;1;;
15506;SDS011;7855;52.210;5.982;2022-09-11T10:42:15;5;;;1;;
15506;SDS011;7855;52.210;5.982;2022-09-11T10:44:29;7;;;1;;
15506;SDS011;7855;52.210;5.982;2022-09-11T10:46:43;10;;;1;;
15506;SDS011;7855;52.210;5.982;2022-09-11T10:49:03;6;;;1;;
15506;SDS011;7855;52.210;5.982;2022-09-11T10:51:12;6;;;1;;
15506;SDS011;7855;52.210;5.982;2022-09-11T10:53:27;15;;;2;;
15506;SDS011;7855;52.210;5.982;2022-09-11T10:55:42;6;;;1;;
15506;SDS011;7855;52.210;5.982;2022-09-11T10:57:56;8;;;2;;
15506;SDS011;7855;52.210;5.982;2022-09-11T11:00:11;5;;;1;;
15506;SDS011;7855;52.210;5.982;2022-09-11T11:02:27;5;;;1;;
15506;SDS011;7855;52.210;5.982;2022-09-11T11:04:39;9;;;2;;
15506;SDS011;7855;52.210;5.982;2022-09-11T11:06:55;10;;;2;;
15506;SDS011;7855;52.210;5.982;2022-09-11T11:09:12;7;;;1;;
15506;SDS011;7855;52.210;5.982;2022-09-11T11:11:25;5;;;1;;
15506;SDS011;7855;52.210;5.982;2022-09-11T11:13:40;13;;;2;;
15506;SDS011;7855;52.210;5.982;2022-09-11T11:15:53;5;;;1;;
15506;SDS011;7855;52.210;5.982;2022-09-11T11:18:23;12;;;2;;
15506;SDS011;7855;52.210;5.982;2022-09-11T11:20:23;7;;;1;;
15506;SDS011;7855;52.210;5.982;2022-09-11T11:22:42;7;;;1;;
15506;SDS011;7855;52.210;5.982;2022-09-11T11:24:52;7;;;1;;
15506;SDS011;7855;52.210;5.982;2022-09-11T11:27:17;9;;;1;;
15506;SDS011;7855;52.210;5.982;2022-09-11T11:29:21;7;;;1;;
15506;SDS011;7855;52.210;5.982;2022-09-11T11:31:36;10;;;1;;
15506;SDS011;7855;52.210;5.982;2022-09-11T11:36:01;8;;;2;;
15506;SDS011;7855;52.210;5.982;2022-09-11T11:38:18;6;;;2;;
15506;SDS011;7855;52.210;5.982;2022-09-11T11:40:30;7;;;1;;
15506;SDS011;7855;52.210;5.982;2022-09-11T11:42:45;7;;;2;;
15506;SDS011;7855;52.210;5.982;2022-09-11T11:45:00;9;;;1;;
15506;SDS011;7855;52.210;5.982;2022-09-11T11:47:12;6;;;2;;
15506;SDS011;7855;52.210;5.982;2022-09-11T11:49:28;7;;;2;;
15506;SDS011;7855;52.210;5.982;2022-09-11T11:51:43;6;;;2;;
15506;SDS011;7855;52.210;5.982;2022-09-11T11:53:56;10;;;2;;
15506;SDS011;7855;52.210;5.982;2022-09-11T11:56:12;15;;;3;;
15506;SDS011;7855;52.210;5.982;2022-09-11T11:58:28;8;;;2;;
15506;SDS011;7855;52.210;5.982;2022-09-11T12:00:40;11;;;2;;
15506;SDS011;7855;52.210;5.982;2022-09-11T12:02:54;9;;;2;;
15506;SDS011;7855;52.210;5.982;2022-09-11T12:05:09;8;;;3;;
15506;SDS011;7855;52.210;5.982;2022-09-11T12:07:23;9;;;2;;
15506;SDS011;7855;52.210;5.982;2022-09-11T12:09:37;8;;;4;;
15506;SDS011;7855;52.210;5.982;2022-09-11T12:11:52;9;;;4;;
15506;SDS011;7855;52.210;5.982;2022-09-11T12:14:10;14;;;5;;
15506;SDS011;7855;52.210;5.982;2022-09-11T12:16:23;10;;;5;;
15506;SDS011;7855;52.210;5.982;2022-09-11T12:18:35;11;;;4;;
15506;SDS011;7855;52.210;5.982;2022-09-11T12:20:50;10;;;4;;
15506;SDS011;7855;52.210;5.982;2022-09-11T12:23:05;10;;;5;;
15506;SDS011;7855;52.210;5.982;2022-09-11T12:29:52;13;;;4;;
15506;SDS011;7855;52.210;5.982;2022-09-11T12:34:17;9;;;3;;
15506;SDS011;7855;52.210;5.982;2022-09-11T12:36:34;8;;;3;;
15506;SDS011;7855;52.210;5.982;2022-09-11T12:38:46;10;;;4;;
15506;SDS011;7855;52.210;5.982;2022-09-11T12:40:59;10;;;4;;
15506;SDS011;7855;52.210;5.982;2022-09-11T12:43:23;9;;;5;;
15506;SDS011;7855;52.210;5.982;2022-09-11T12:45:30;10;;;4;;
15506;SDS011;7855;52.210;5.982;2022-09-11T12:47:44;8;;;4;;
15506;SDS011;7855;52.210;5.982;2022-09-11T12:50:00;10;;;5;;
15506;SDS011;7855;52.210;5.982;2022-09-11T12:52:23;11;;;4;;
15506;SDS011;7855;52.210;5.982;2022-09-11T12:54:26;11;;;3;;
15506;SDS011;7855;52.210;5.982;2022-09-11T12:56:43;11;;;3;;
15506;SDS011;7855;52.210;5.982;2022-09-11T12:58:56;7;;;2;;
15506;SDS011;7855;52.210;5.982;2022-09-11T13:01:12;7;;;2;;
15506;SDS011;7855;52.210;5.982;2022-09-11T13:03:24;7;;;2;;
15506;SDS011;7855;52.210;5.982;2022-09-11T13:05:38;9;;;3;;
15506;SDS011;7855;52.210;5.982;2022-09-11T13:07:54;12;;;4;;
15506;SDS011;7855;52.210;5.982;2022-09-11T13:10:08;9;;;3;;
15506;SDS011;7855;52.210;5.982;2022-09-11T13:14:43;7;;;3;;
15506;SDS011;7855;52.210;5.982;2022-09-11T13:16:51;10;;;3;;
15506;SDS011;7855;52.210;5.982;2022-09-11T13:19:08;9;;;3;;
15506;SDS011;7855;52.210;5.982;2022-09-11T13:21:20;9;;;3;;
15506;SDS011;7855;52.210;5.982;2022-09-11T13:23:34;10;;;4;;
15506;SDS011;7855;52.210;5.982;2022-09-11T13:25:49;9;;;2;;
15506;SDS011;7855;52.210;5.982;2022-09-11T13:28:03;7;;;3;;
15506;SDS011;7855;52.210;5.982;2022-09-11T13:30:18;7;;;3;;
15506;SDS011;7855;52.210;5.982;2022-09-11T13:32:31;9;;;3;;
15506;SDS011;7855;52.210;5.982;2022-09-11T13:34:46;9;;;3;;
15506;SDS011;7855;52.210;5.982;2022-09-11T13:36:59;8;;;3;;
15506;SDS011;7855;52.210;5.982;2022-09-11T13:39:14;7;;;2;;
15506;SDS011;7855;52.210;5.982;2022-09-11T13:41:29;7;;;3;;
15506;SDS011;7855;52.210;5.982;2022-09-11T13:43:44;8;;;3;;
15506;SDS011;7855;52.210;5.982;2022-09-11T13:46:17;10;;;3;;
15506;SDS011;7855;52.210;5.982;2022-09-11T13:48:18;9;;;3;;
15506;SDS011;7855;52.210;5.982;2022-09-11T13:50:26;15;;;3;;
15506;SDS011;7855;52.210;5.982;2022-09-11T13:52:41;7;;;2;;
15506;SDS011;7855;52.210;5.982;2022-09-11T13:54:56;6;;;2;;
15506;SDS011;7855;52.210;5.982;2022-09-11T13:57:12;9;;;3;;
15506;SDS011;7855;52.210;5.982;2022-09-11T13:59:31;8;;;3;;
15506;SDS011;7855;52.210;5.982;2022-09-11T14:01:45;8;;;3;;
15506;SDS011;7855;52.210;5.982;2022-09-11T14:03:53;11;;;3;;
15506;SDS011;7855;52.210;5.982;2022-09-11T14:06:08;11;;;2;;
15506;SDS011;7855;52.210;5.982;2022-09-11T14:08:30;6;;;2;;
15506;SDS011;7855;52.210;5.982;2022-09-11T14:10:37;10;;;2;;
15506;SDS011;7855;52.210;5.982;2022-09-11T14:12:53;6;;;1;;
15506;SDS011;7855;52.210;5.982;2022-09-11T14:15:08;10;;;2;;
15506;SDS011;7855;52.210;5.982;2022-09-11T14:17:20;8;;;2;;
15506;SDS011;7855;52.210;5.982;2022-09-11T14:19:34;8;;;2;;
15506;SDS011;7855;52.210;5.982;2022-09-11T14:21:49;10;;;1;;
15506;SDS011;7855;52.210;5.982;2022-09-11T14:24:04;7;;;2;;
15506;SDS011;7855;52.210;5.982;2022-09-11T14:26:18;8;;;1;;
15506;SDS011;7855;52.210;5.982;2022-09-11T14:28:34;8;;;2;;
15506;SDS011;7855;52.210;5.982;2022-09-11T14:30:49;7;;;2;;
15506;SDS011;7855;52.210;5.982;2022-09-11T14:33:05;6;;;2;;
15506;SDS011;7855;52.210;5.982;2022-09-11T14:35:15;9;;;3;;
15506;SDS011;7855;52.210;5.982;2022-09-11T14:37:30;7;;;2;;
15506;SDS011;7855;52.210;5.982;2022-09-11T14:39:45;7;;;2;;
15506;SDS011;7855;52.210;5.982;2022-09-11T14:41:58;11;;;3;;
15506;SDS011;7855;52.210;5.982;2022-09-11T14:44:13;7;;;3;;
15506;SDS011;7855;52.210;5.982;2022-09-11T14:46:28;7;;;2;;
15506;SDS011;7855;52.210;5.982;2022-09-11T14:48:42;10;;;2;;
15506;SDS011;7855;52.210;5.982;2022-09-11T14:50:56;9;;;4;;
15506;SDS011;7855;52.210;5.982;2022-09-11T14:53:14;7;;;2;;
15506;SDS011;7855;52.210;5.982;2022-09-11T14:55:26;7;;;2;;
15506;SDS011;7855;52.210;5.982;2022-09-11T14:57:40;7;;;3;;
15506;SDS011;7855;52.210;5.982;2022-09-11T14:59:55;6;;;2;;
15506;SDS011;7855;52.210;5.982;2022-09-11T15:02:09;8;;;3;;
15506;SDS011;7855;52.210;5.982;2022-09-11T15:04:23;9;;;4;;
15506;SDS011;7855;52.210;5.982;2022-09-11T15:06:38;9;;;3;;